TOURFACTS.DK  
Stats and Facts from Tour de France.

Tour de France 2017 starts in 35 days
  Riders   Stages   Teams   Summits   Yearly  


 
Search by year

 After:  2016 - Stage 21:   14626 starters.
  5086 different riders.
  632 teams.
  2211 stages.
  454 restdays.
  436049.60 km.
  5622 abandonnees.


Top 3
Christopher Froome89:04:48
Romain Bardet89:08:53
Nairo Quintana89:09:09
Rafal Majka209 pt.
Thomas De Gendt130 pt.
Jarlinson Pantano ..121 pt.
Peter Sagan470 pt.
Marcel Kittel228 pt.
Michael Matthews199 pt.
Adam Yates89:09:30
Louis Meintjes89:11:46
Emanuel Buchmann89:52:28
Facts from Tour de France 2016
  |   Stages.  |   Stage winners.  |   Days in yellow  |   Average speed.  |   Route.  |   Teams.  |   All riders.  |   Rookies.  |   Withdrawls.  |  

  |   GC.  |   Polka  |   Green  |   White  |   Summits. (In tour)  |   Summits. (Points)  |   Miscellaneous.  |  

Stage 18 on 21 - 07 - 2016
         Owning:    Christopher Froome      Rafal Majka      Peter Sagan      Adam Yates  

Pick a stage:  1 2 3 4 5 6 7 8 9 10 11 12 13 14 15 16 17 18 19 20 21
  SallanchesMegève | Dist: 17.00 km.

Average speed for all riders in stage:  29,584 km./hr.
    Place:Name:Team:Time:Km/h:
KENChristopher FroomeGBRSky Procycling00:30:43  +  00:00:00=33,207 
NLDTom DumoulinDEUTeam Giant Alpecin00:31:04  +  00:00:21=32,833 
ITAFabio AruKAZAstana Pro Team00:31:16  +  00:00:33=32,623 
4 AUSRichie PorteUSABMC Racing Team00:31:16  +  00:00:33=32,623 
5 FRARomain BardetFRAAg2r La Mondiale00:31:25  +  00:00:42=32,467 
6 BELThomas De GendtBELLotto Soudal00:31:45  +  00:01:02=32,126 
7 ESPJon Izaguirre InsaustiESPMovistar Team00:31:46  +  00:01:03=32,109 
8 ESPJoaquim RodriguezRUSTeam Katusha00:31:48  +  00:01:05=32,075 
9 ZAFLouis MeintjesITALampre-Merida00:31:51  +  00:01:08=32,025 
10 COLNairo QuintanaESPMovistar Team00:31:53  +  00:01:10=31,992 
11 FRAJérôme CoppelCHEIAM Cycling00:31:58  +  00:01:15=31,908 
12 ESPAlejandro ValverdeESPMovistar Team00:32:01  +  00:01:18=31,858 
13 CZERoman KreuzigerRUSTinkoff00:32:03  +  00:01:20=31,825 
14 NLDStef ClementCHEIAM Cycling00:32:05  +  00:01:22=31,792 
15 ITAVincenzo NibaliKAZAstana Pro Team00:32:06  +  00:01:23=31,776 
16 ENGAdam YatesAUSORICA BikeExchange00:32:06  +  00:01:23=31,776 
17 NLDBauke MollemaUSATrek – Segafredo00:32:08  +  00:01:25=31,743 
18 ENGDaniel MartinBELEtixx - Quick Step00:32:11  +  00:01:28=31,693 
19 FRARomain SicardFRADirect Energie00:32:21  +  00:01:38=31,530 
20 FRASylvain ChavanelFRADirect Energie00:32:27  +  00:01:44=31,433 
21 PRTNelson OliveiraESPMovistar Team00:32:29  +  00:01:46=31,401 
22 FRANicolas EdetFRACofidis – Solutions Crédits00:32:37  +  00:01:54=31,272 
23 WALGeraint ThomasGBRSky Procycling00:32:52  +  00:02:09=31,034 
24 KAZAlexey LutsenkoKAZAstana Pro Team00:32:55  +  00:02:12=30,987 
25 ITADamiano CarusoUSABMC Racing Team00:32:56  +  00:02:13=30,972 
26 CZEJan BártaDEUBora-Argon 1800:32:58  +  00:02:15=30,940 
27 FRATony GallopinBELLotto Soudal00:33:01  +  00:02:18=30,893 
28 FRAJulian AlaphilippeBELEtixx - Quick Step00:33:03  +  00:02:20=30,862 
29 CHESébastien ReichenbachFRAFDJ00:33:04  +  00:02:21=30,847 
30 DNKMichael ValgrenRUSTinkoff00:33:05  +  00:02:22=30,831 
31 FRA Alexis GougeardFRAAg2r La Mondiale00:33:06  +  00:02:23=30,816 
32 FRAArnold JeannessonFRACofidis – Solutions Crédits00:33:07  +  00:02:24=30,800 
33 ESPMikel NieveGBRSky Procycling00:33:08  +  00:02:25=30,785 
34 FRAPierre RollandUSATeam Cannondale Drapac00:33:10  +  00:02:27=30,754 
35 ESPMikel Landa MeanaGBRSky Procycling00:33:11  +  00:02:28=30,738 
36 ITADiego RosaKAZAstana Pro Team00:33:11  +  00:02:28=30,738 
37 ZAFDaryl ImpeyAUSORICA BikeExchange00:33:12  +  00:02:29=30,723 
38 RUSIlnur ZakarinRUSTeam Katusha00:33:18  +  00:02:35=30,631 
39 DNKJakob FuglsangKAZAstana Pro Team00:33:20  +  00:02:37=30,600 
40 ERIDaniel TeklehaimanotZAFDimension Data00:33:21  +  00:02:38=30,585 
41 ARGEduardo SepulvedaFRAFortuneo - Vital Concept00:33:23  +  00:02:40=30,554 
42 DEUEmanuel BuchmannDEUBora-Argon 1800:33:26  +  00:02:43=30,508 
43 ESTTanel KangertKAZAstana Pro Team00:33:27  +  00:02:44=30,493 
44 ESPHaimar ZubeldiaUSATrek – Segafredo00:33:27  +  00:02:44=30,493 
45 LUXBen GastauerFRAAg2r La Mondiale00:33:31  +  00:02:48=30,433 
46 FRAWarren BarguilDEUTeam Giant Alpecin00:33:32  +  00:02:49=30,417 
47 COLSergio Luis HenaoGBRSky Procycling00:33:33  +  00:02:50=30,402 
48 FRAAnthony DelaplaceFRAFortuneo - Vital Concept00:33:37  +  00:02:54=30,342 
49 DEUSimon GeschkeDEUTeam Giant Alpecin00:33:39  +  00:02:56=30,312 
50 FRABrice FeilluFRAFortuneo - Vital Concept00:33:39  +  00:02:56=30,312 
51 NLDTom-Jelte SlagterUSATeam Cannondale Drapac00:33:42  +  00:02:59=30,267 
52 FRAAlexis VuillermozFRAAg2r La Mondiale00:33:45  +  00:03:02=30,222 
53 FRAPierre-Luc PérichonFRAFortuneo - Vital Concept00:33:46  +  00:03:03=30,207 
54 LTURamunas NavardauskasUSATeam Cannondale Drapac00:33:46  +  00:03:03=30,207 
55 NOREdvald Boasson HagenZAFDimension Data00:33:47  +  00:03:04=30,192 
56 NLDWout PoelsGBRSky Procycling00:33:50  +  00:03:07=30,148 
57 CHEMartin ElmigerCHEIAM Cycling00:33:54  +  00:03:11=30,088 
58 ESPLuis León SánchezKAZAstana Pro Team00:33:57  +  00:03:14=30,044 
59 FRAJérémy RoyFRAFDJ00:33:58  +  00:03:15=30,029 
60 CHEReto HollensteinCHEIAM Cycling00:33:58  +  00:03:15=30,029 
61 SVNJan PolancITALampre-Merida00:33:59  +  00:03:16=30,015 
62 AUTGeorg PreidlerDEUTeam Giant Alpecin00:33:59  +  00:03:16=30,015 
63 COLJarlinson Pantano GomezCHEIAM Cycling00:34:00  +  00:03:17=30,000 
64 CHEMichael SchärUSABMC Racing Team00:34:01  +  00:03:18=29,985 
65 CHEMichael AlbasiniAUSORICA BikeExchange00:34:04  +  00:03:21=29,941 
66 IRLChristopher Juul JensenAUSORICA BikeExchange00:34:04  +  00:03:21=29,941 
67 POLMaciej BodnarRUSTinkoff00:34:06  +  00:03:23=29,912 
68 ITADomenico PozzovivoFRAAg2r La Mondiale00:34:06  +  00:03:23=29,912 
69 CHESteve MorabitoFRAFDJ00:34:07  +  00:03:24=29,897 
70 ITAPaolo TiralongoKAZAstana Pro Team00:34:10  +  00:03:27=29,854 
71 FRAAmaël MoinardUSABMC Racing Team00:34:11  +  00:03:28=29,839 
72 FRABryan CoquardFRADirect Energie00:34:11  +  00:03:28=29,839 
73 ESPRubén PlazaAUSORICA BikeExchange00:34:12  +  00:03:29=29,825 
74 FRAThomas VoecklerFRADirect Energie00:34:12  +  00:03:29=29,825 
75 DEUTony MartinBELEtixx - Quick Step00:34:15  +  00:03:32=29,781 
76 NLDWilco KeldermanNLDTeam Lotto NL - Jumbo00:34:15  +  00:03:32=29,781 
77 BELOliver NaesenCHEIAM Cycling00:34:16  +  00:03:33=29,767 
78 NLDLaurens ten DamDEUTeam Giant Alpecin00:34:17  +  00:03:34=29,752 
79 FRAFabrice JeandesbozFRADirect Energie00:34:17  +  00:03:34=29,752 
80 ESPImanol ErvitiESPMovistar Team00:34:18  +  00:03:35=29,738 
81 FRACyril GautierFRAAg2r La Mondiale00:34:18  +  00:03:35=29,738 
82 POLRafal MajkaRUSTinkoff00:34:20  +  00:03:37=29,709 
83 DEUPaul MartensNLDTeam Lotto NL - Jumbo00:34:21  +  00:03:38=29,694 
84 NLDAlbert TimmerDEUTeam Giant Alpecin00:34:21  +  00:03:38=29,694 
85 AUSLuke DurbridgeAUSORICA BikeExchange00:34:22  +  00:03:39=29,680 
86 NLDDylan Van BaarleUSATeam Cannondale Drapac00:34:22  +  00:03:39=29,680 
87 FRAArthur VichotFRAFDJ00:34:24  +  00:03:41=29,651 
88 LUXFränk SchleckUSATrek – Segafredo00:34:24  +  00:03:41=29,651 
89 BELJan BakelantsFRAAg2r La Mondiale00:34:27  +  00:03:44=29,608 
90 SVKPeter SaganRUSTinkoff00:34:28  +  00:03:45=29,594 
91 AUSMichael MatthewsAUSORICA BikeExchange00:34:29  +  00:03:46=29,580 
92 BELSerge PauwelsZAFDimension Data00:34:31  +  00:03:48=29,551 
93 CANAntoine DuchesneFRADirect Energie00:34:31  +  00:03:48=29,551 
94 AUTPatrick KonradDEUBora-Argon 1800:34:32  +  00:03:49=29,537 
95 NORVegard BreenFRAFortuneo - Vital Concept00:34:33  +  00:03:50=29,522 
96 NZLGeorge BennettNLDTeam Lotto NL - Jumbo00:34:37  +  00:03:54=29,466 
97 BELGreg Van AvermaetUSABMC Racing Team00:34:39  +  00:03:56=29,437 
98 HRVKristijan DurasekITALampre-Merida00:34:42  +  00:03:59=29,395 
99 DEUPaul VossDEUBora-Argon 1800:34:42  +  00:03:59=29,395 
100 ITACesare BenedettiDEUBora-Argon 1800:34:43  +  00:04:00=29,381 
101 FRAFlorian VachonFRAFortuneo - Vital Concept00:34:47  +  00:04:04=29,324 
102 USAPeter StetinaUSATrek – Segafredo00:34:49  +  00:04:06=29,296 
103 FRAAnthony RouxFRAFDJ00:34:50  +  00:04:07=29,282 
104 ETHTsgabu Gebremaryan GrmayITALampre-Merida00:34:52  +  00:04:09=29,254 
105 ESPAlberto LosadaRUSTeam Katusha00:34:53  +  00:04:10=29,240 
106 NLDBert-Jan LindemanNLDTeam Lotto NL - Jumbo00:34:56  +  00:04:13=29,198 
107 USABrent BookwalterUSABMC Racing Team00:34:57  +  00:04:14=29,185 
108 POLBartosz HuzarskiDEUBora-Argon 1800:35:01  +  00:04:18=29,129 
109 BELJürgen RoelandtsBELLotto Soudal00:35:01  +  00:04:18=29,129 
110 BELSep VanmarckeNLDTeam Lotto NL - Jumbo00:35:01  +  00:04:18=29,129 
111 FRAJérôme CousinFRACofidis – Solutions Crédits00:35:02  +  00:04:19=29,115 
112 NLDTimo RoosenNLDTeam Lotto NL - Jumbo00:35:04  +  00:04:21=29,087 
113 COLWinner AnaconaESPMovistar Team00:35:05  +  00:04:22=29,074 
114 AUSAdam HansenBELLotto Soudal00:35:06  +  00:04:23=29,060 
115 DEUMarcus BurghardtUSABMC Racing Team00:35:13  +  00:04:30=28,964 
116 FRASamuel DumoulinFRAAg2r La Mondiale00:35:14  +  00:04:31=28,950 
117 ITAOscar GattoRUSTinkoff00:35:14  +  00:04:31=28,950 
118 DEUMarcel KittelBELEtixx - Quick Step00:35:14  +  00:04:31=28,950 
119 USALawson CraddockUSATeam Cannondale Drapac00:35:15  +  00:04:32=28,936 
120 FRAGeoffrey SoupeFRACofidis – Solutions Crédits00:35:16  +  00:04:33=28,922 
121 ENGStephen CummingsZAFDimension Data00:35:16  +  00:04:33=28,922 
122 ESPAngel ViciosoRUSTeam Katusha00:35:17  +  00:04:34=28,909 
123 AUSLeigh HowardCHEIAM Cycling00:35:20  +  00:04:37=28,868 
124 NORAlexander KristoffRUSTeam Katusha00:35:25  +  00:04:42=28,800 
125 CZEPetr VakocBELEtixx - Quick Step00:35:28  +  00:04:45=28,759 
126 FRAYohann GèneFRADirect Energie00:35:28  +  00:04:45=28,759 
127 WALLuke RoweGBRSky Procycling00:35:28  +  00:04:45=28,759 
128 FRAAdrien PetitFRADirect Energie00:35:28  +  00:04:45=28,759 
129 BELJasper StuyvenUSATrek – Segafredo00:35:30  +  00:04:47=28,732 
130 FRAChristophe LaporteFRACofidis – Solutions Crédits00:35:31  +  00:04:48=28,719 
131 NORSondre Holst EngerCHEIAM Cycling00:35:32  +  00:04:49=28,705 
132 USATejay Van GarderenUSABMC Racing Team00:35:34  +  00:04:51=28,679 
133 FRAWilliam BonnetFRAFDJ00:35:36  +  00:04:53=28,652 
134 BELIljo KeisseBELEtixx - Quick Step00:35:37  +  00:04:54=28,638 
135 BRAMaximilano RichezeBELEtixx - Quick Step00:35:39  +  00:04:56=28,612 
136 PRTRui CostaITALampre-Merida00:35:40  +  00:04:57=28,598 
137 AUSMathew HaymanAUSORICA BikeExchange00:35:41  +  00:04:58=28,585 
138 FRACyril LemoineFRACofidis – Solutions Crédits00:35:41  +  00:04:58=28,585 
139 SVNLuka PibernikITALampre-Merida00:35:43  +  00:05:00=28,558 
140 ESPLuis Angel MateFRACofidis – Solutions Crédits00:35:43  +  00:05:00=28,558 
141 JPNYukiya ArashiroITALampre-Merida00:35:44  +  00:05:01=28,545 
142 ESPDaniel MorenoESPMovistar Team00:35:47  +  00:05:04=28,505 
143 BLRVasil KiryienkaGBRSky Procycling00:35:51  +  00:05:08=28,452 
144 HRVRobert KiserlovskiRUSTinkoff00:35:54  +  00:05:11=28,412 
145 ITAFabio SabatiniBELEtixx - Quick Step00:35:56  +  00:05:13=28,386 
146 ITAMatteo TosattoRUSTinkoff00:35:57  +  00:05:14=28,373 
147 DEURobert WagnerNLDTeam Lotto NL - Jumbo00:35:57  +  00:05:14=28,373 
148 CHEGregory RastUSATrek – Segafredo00:36:03  +  00:05:20=28,294 
149 DNKChris Anker SørensenFRAFortuneo - Vital Concept00:36:03  +  00:05:20=28,294 
150 DEUJohn DegenkolbDEUTeam Giant Alpecin00:36:05  +  00:05:22=28,268 
151 UKRAndriy GrivkoKAZAstana Pro Team00:36:06  +  00:05:23=28,255 
152 ZAFReinardt Janse Van RensburgZAFDimension Data00:36:06  +  00:05:23=28,255 
153 SVNKristjan KorenUSATeam Cannondale Drapac00:36:06  +  00:05:23=28,255 
154 NZLGregory HendersonBELLotto Soudal00:36:06  +  00:05:23=28,255 
155 ERINatnael Teweldemedhin BerhaneZAFDimension Data00:36:11  +  00:05:28=28,190 
156 DEUAndré GreipelBELLotto Soudal00:36:12  +  00:05:29=28,177 
157 NLDRoy CurversDEUTeam Giant Alpecin00:36:13  +  00:05:30=28,164 
158 FRAMickaël CherelFRAAg2r La Mondiale00:36:13  +  00:05:30=28,164 
159 ESPMarkel IrizarUSATrek – Segafredo00:36:14  +  00:05:31=28,151 
160 BELJulien VermoteBELEtixx - Quick Step00:36:18  +  00:05:35=28,099 
161 ENGIan StannardGBRSky Procycling00:36:19  +  00:05:36=28,086 
162 DEUAndreas SchillingerDEUBora-Argon 1800:36:24  +  00:05:41=28,022 
163 USAAlex HowesUSATeam Cannondale Drapac00:36:25  +  00:05:42=28,009 
164 NLDRamon SinkeldamDEUTeam Giant Alpecin00:36:27  +  00:05:44=27,984 
165 ITAJacopo GuarnieriRUSTeam Katusha00:36:30  +  00:05:47=27,945 
166 NLDDylan GroenewegenNLDTeam Lotto NL - Jumbo00:36:32  +  00:05:49=27,920 
167 BELMaarten WynantsNLDTeam Lotto NL - Jumbo00:36:33  +  00:05:50=27,907 
168 ITAMatteo BonoITALampre-Merida00:36:33  +  00:05:50=27,907 
169 DEUMarcel SiebergBELLotto Soudal00:36:35  +  00:05:52=27,882 
170 DNKLars BakBELLotto Soudal00:36:37  +  00:05:54=27,856 
171 BELSam BennettDEUBora-Argon 1800:36:47  +  00:06:04=27,730 
172 ITADavide CimolaiITALampre-Merida00:36:59  +  00:06:16=27,580 
173 AUTMarco HallerRUSTeam Katusha00:37:02  +  00:06:19=27,543 
174 ENGDaniel McLayFRAFortuneo - Vital Concept00:37:22  +  00:06:39=27,297 
175 ESPDaniel NavarroFRACofidis – Solutions Crédits00:37:27  +  00:06:44=27,236 
176 FRAArmindo FonsecaFRAFortuneo - Vital Concept00:37:46  +  00:07:03=27,008 
177 AUTBernhard EiselZAFDimension Data00:38:05  +  00:07:22=26,783 

Withdrawls: 2
 
Rider
Team
Reason
62  CHEFabian CancellaraUSATrek – SegafredoDid not start
132  NZLShane ArchboldDEUBora-Argon 18Did not start

Todays birthdays.

1896  Georges Cuvelier
1909  Gaspard Rinaldi
1913  Erich Bautz
1913  Alexandre Pawlisiak
1916  Edmond De Lathouwer
1918  Prosper Depredomme
1929  Eluf Dalgaard
1933  Jean Graczyk
1942  Guy Seyve
1943  Henri Rabaute
1964  Jan Siemons
1966  Andrew Bishop
1975  Andrea Brognara
1984  Mikel Nieve